Terminal Aerodrome Forecast
Issued by NWS

Home | Current Version | Previous Version | Text Only | Print | Product List | Glossary On
Versions: 1 2 3 4 5 6 7 8 9 10 11 12 13 14 15
000
FTUS44 KLZK 182300 RRA
TAFBPK
TAF
KBPK 182341Z 1900/1924 00000KT P6SM OVC008
     FM190300 00000KT 4SM BR OVC005
     FM190800 00000KT 2SM -DZ BR OVC004
      TEMPO 1909/1913 1/2SM FG VV002
     FM191600 10003KT 5SM BR OVC007
     FM192000 10002KT 6SM BR OVC012=

USA.gov is the U.S. government's official web portal to all federal, state and local government web resources and services.